Time;durP1;ratioP1;P1;durP2;ratioP2;P2;SDS_P1;SDS_P2;PMS_P1;PMS_P2;Temp;Humidity;BMP_temperature;BMP_pressure;BME280_temperature;BME280_humidity;BME280_pressure;Samples;Min_cycle;Max_cycle;Signal;HPM_P1;HPM_P2
2022/11/27 00:00:29;;;;;;;20.30;11.67;;;;;;;6.25;77.97;101793.78;5004511;28;20295;-64
2022/11/27 00:02:55;;;;;;;24.57;12.37;;;;;;;6.23;77.72;101792.78;5008787;28;20502;-63
2022/11/27 00:05:22;;;;;;;23.53;12.60;;;;;;;6.25;77.87;101799.03;4999748;28;20289;-63
2022/11/27 00:07:48;;;;;;;23.07;11.67;;;;;;;6.18;77.18;101767.06;5004311;28;20609;-63
2022/11/27 00:10:15;;;;;;;23.17;11.83;;;;;;;6.28;77.34;101782.50;4996963;28;20728;-64
2022/11/27 00:12:41;;;;;;;25.53;11.20;;;;;;;6.32;77.41;101783.56;5001336;28;20207;-64
2022/11/27 00:15:08;;;;;;;22.53;11.60;;;;;;;6.19;77.56;101758.34;5005896;28;20202;-63
2022/11/27 00:17:40;;;;;;;23.53;12.60;;;;;;;6.24;77.67;101770.03;5005098;28;20591;-64
2022/11/27 00:20:07;;;;;;;25.13;13.20;;;;;;;6.28;77.95;101764.09;5009834;28;20219;-63
2022/11/27 00:22:33;;;;;;;21.17;12.23;;;;;;;6.31;77.49;101761.63;5008680;28;20210;-64
2022/11/27 00:24:59;;;;;;;22.47;12.03;;;;;;;6.32;77.28;101762.53;5003098;28;20209;-63
2022/11/27 00:27:26;;;;;;;20.83;11.50;;;;;;;6.30;77.45;101759.81;5010864;28;20198;-63
2022/11/27 00:29:52;;;;;;;20.87;11.80;;;;;;;6.25;77.72;101756.03;5006359;28;20229;-63
2022/11/27 00:32:18;;;;;;;24.43;13.03;;;;;;;6.27;78.06;101755.28;5005469;28;20295;-62
2022/11/27 00:34:45;;;;;;;22.93;13.27;;;;;;;6.25;78.04;101759.56;5004427;28;20270;-63
2022/11/27 00:37:13;;;;;;;23.10;12.83;;;;;;;6.26;78.31;101749.97;5008805;28;20277;-63
2022/11/27 00:39:40;;;;;;;22.27;11.63;;;;;;;6.28;78.44;101746.59;5008335;28;20603;-63
2022/11/27 00:42:06;;;;;;;21.03;11.53;;;;;;;6.27;78.35;101760.56;5003784;28;20215;-63
2022/11/27 00:44:33;;;;;;;20.87;12.07;;;;;;;6.25;78.19;101754.31;5005412;28;20266;-63
2022/11/27 00:46:59;;;;;;;21.30;11.37;;;;;;;6.24;78.52;101747.25;5008589;28;20262;-63
2022/11/27 00:49:26;;;;;;;22.53;11.67;;;;;;;6.28;78.18;101743.03;5009046;28;20301;-63
2022/11/27 00:51:52;;;;;;;25.07;12.40;;;;;;;6.32;78.24;101741.47;5005246;28;20290;-63
2022/11/27 00:54:19;;;;;;;19.67;11.40;;;;;;;6.30;78.26;101741.41;5007284;28;20295;-63
2022/11/27 00:56:48;;;;;;;22.77;12.33;;;;;;;6.32;78.44;101741.47;5006880;28;20702;-63
2022/11/27 00:59:14;;;;;;;23.53;12.33;;;;;;;6.31;78.45;101742.31;5005952;28;20297;-63
2022/11/27 01:01:42;;;;;;;23.40;12.10;;;;;;;6.28;78.50;101748.31;5008829;28;20283;-63
2022/11/27 01:04:14;;;;;;;22.37;12.17;;;;;;;6.32;78.55;101750.28;5010328;28;20262;-63
2022/11/27 01:06:41;;;;;;;22.10;11.97;;;;;;;6.30;78.55;101738.78;5005013;28;20207;-63
2022/11/27 01:09:10;;;;;;;23.77;11.10;;;;;;;6.34;78.55;101731.94;5002024;28;20231;-63
2022/11/27 01:11:37;;;;;;;17.80;9.27;;;;;;;6.37;78.59;101726.81;5004855;28;20250;-64
2022/11/27 01:14:11;;;;;;;20.20;8.60;;;;;;;6.39;78.39;101723.44;5003929;28;20286;-64
2022/11/27 01:16:38;;;;;;;18.93;8.73;;;;;;;6.37;78.86;101721.56;5006728;28;20257;-64
2022/11/27 01:19:10;;;;;;;16.27;8.60;;;;;;;6.31;78.63;101702.84;5004108;28;20223;-64
2022/11/27 01:21:36;;;;;;;17.67;8.83;;;;;;;6.46;78.32;101736.13;5006343;28;20660;-64
2022/11/27 01:24:03;;;;;;;18.73;9.03;;;;;;;6.42;78.76;101734.16;5007147;28;20208;-64
2022/11/27 01:26:30;;;;;;;20.27;9.53;;;;;;;6.35;79.16;101715.31;5008335;28;20250;-64
2022/11/27 01:28:57;;;;;;;18.70;9.80;;;;;;;6.42;79.37;101722.72;5004052;28;20553;-64
2022/11/27 01:31:26;;;;;;;19.87;9.67;;;;;;;6.41;79.37;101727.09;5008352;28;20630;-63
2022/11/27 01:33:55;;;;;;;21.47;10.07;;;;;;;6.40;79.60;101733.16;5010867;28;20203;-64
2022/11/27 01:36:22;;;;;;;19.63;10.10;;;;;;;6.41;80.00;101726.19;5004078;28;20262;-64
2022/11/27 01:38:49;;;;;;;21.60;10.67;;;;;;;6.40;80.00;101730.53;5006539;28;20774;-63
2022/11/27 01:41:21;;;;;;;22.27;10.87;;;;;;;6.41;79.78;101720.94;5006125;28;20318;-64
2022/11/27 01:43:51;;;;;;;20.43;10.10;;;;;;;6.41;79.73;101711.31;5007731;28;20247;-64
2022/11/27 01:46:33;;;;;;;19.80;10.20;;;;;;;6.45;79.66;101723.78;5003049;28;20291;-64
2022/11/27 01:49:09;;;;;;;21.27;9.67;;;;;;;6.51;79.33;101723.19;5003735;28;20747;-64
2022/11/27 01:51:59;;;;;;;21.97;9.30;;;;;;;6.50;79.77;101719.66;5001234;28;20199;-64
2022/11/27 01:54:31;;;;;;;16.70;8.50;;;;;;;6.55;79.58;101714.63;4997224;28;20310;-64
2022/11/27 01:57:03;;;;;;;18.17;8.83;;;;;;;6.47;79.75;101702.81;5006577;28;20195;-64
2022/11/27 01:59:30;;;;;;;20.77;9.73;;;;;;;6.41;80.01;101703.41;5005971;28;20240;-63
2022/11/27 02:01:56;;;;;;;17.07;8.53;;;;;;;6.40;80.15;101714.72;5006217;28;20203;-64
2022/11/27 02:04:23;;;;;;;18.57;8.90;;;;;;;6.45;80.37;101702.75;5007333;28;20659;-64
2022/11/27 02:06:49;;;;;;;17.00;8.50;;;;;;;6.52;79.93;101706.59;4993561;28;20200;-63
2022/11/27 02:09:15;;;;;;;16.40;8.60;;;;;;;6.43;80.20;101701.75;4995965;28;20312;-63
2022/11/27 02:11:54;;;;;;;17.60;8.47;;;;;;;6.41;80.33;101706.03;5006162;28;20207;-63
2022/11/27 02:14:46;;;;;;;19.57;8.27;;;;;;;6.38;80.48;101691.78;5006216;28;20218;-64
2022/11/27 02:17:23;;;;;;;16.57;8.10;;;;;;;6.35;80.67;101691.66;5005895;28;20228;-63
2022/11/27 02:20:06;;;;;;;17.57;8.90;;;;;;;6.34;81.27;101693.38;4999451;28;20323;-64
2022/11/27 02:22:49;;;;;;;14.10;8.10;;;;;;;6.35;80.91;101696.91;4995838;28;20234;-63
2022/11/27 02:25:33;;;;;;;19.70;8.73;;;;;;;6.33;81.59;101696.81;4997381;28;20299;-64
2022/11/27 02:28:23;;;;;;;15.57;8.90;;;;;;;6.33;81.25;101691.56;5002319;28;20232;-64
2022/11/27 02:31:00;;;;;;;18.30;8.10;;;;;;;6.37;81.04;101690.00;4996886;28;20329;-64
2022/11/27 02:33:29;;;;;;;17.10;8.30;;;;;;;6.29;81.09;101692.25;5002923;28;20203;-64
2022/11/27 02:36:04;;;;;;;14.60;8.37;;;;;;;6.38;80.55;101684.81;5005907;28;20214;-64
2022/11/27 02:38:43;;;;;;;16.53;8.80;;;;;;;6.35;80.87;101673.22;5003633;28;20219;-63
2022/11/27 02:41:20;;;;;;;13.83;8.53;;;;;;;6.33;80.99;101672.25;5000833;28;20315;-63
2022/11/27 02:43:49;;;;;;;18.47;8.87;;;;;;;6.32;81.27;101675.72;5002678;28;20698;-64
2022/11/27 02:46:17;;;;;;;17.83;9.53;;;;;;;6.33;81.33;101665.25;5003854;28;20657;-64
2022/11/27 02:49:03;;;;;;;17.37;9.53;;;;;;;6.35;81.29;101671.50;5004772;28;20193;-63
2022/11/27 02:51:51;;;;;;;24.50;9.97;;;;;;;6.31;81.30;101664.28;4999240;28;20622;-63
2022/11/27 02:54:24;;;;;;;23.00;11.57;;;;;;;6.35;80.93;101674.13;5001755;28;20196;-64
2022/11/27 02:56:51;;;;;;;24.97;12.33;;;;;;;6.51;79.72;101673.19;5000209;28;20303;-63
2022/11/27 02:59:20;;;;;;;24.60;13.60;;;;;;;6.44;79.84;101673.72;4994365;28;20227;-63
2022/11/27 03:01:54;;;;;;;24.03;13.20;;;;;;;6.38;79.72;101674.28;5004102;28;20283;-64
2022/11/27 03:04:28;;;;;;;23.80;13.80;;;;;;;6.40;80.17;101669.09;5000827;28;20204;-63
2022/11/27 03:06:59;;;;;;;31.13;14.27;;;;;;;6.45;79.58;101672.91;5000557;28;20679;-64
2022/11/27 03:09:41;;;;;;;20.50;12.17;;;;;;;6.43;79.48;101666.66;5000313;28;20266;-64
2022/11/27 03:12:10;;;;;;;21.93;11.20;;;;;;;6.45;79.33;101665.91;4996662;28;20201;-64
2022/11/27 03:14:39;;;;;;;18.10;11.17;;;;;;;6.33;80.01;101652.09;5000607;28;20193;-63
2022/11/27 03:17:27;;;;;;;21.57;10.73;;;;;;;6.24;80.50;101634.13;5003418;28;20508;-63
2022/11/27 03:20:22;;;;;;;18.00;10.33;;;;;;;6.16;80.89;101631.94;4999994;28;20275;-64
2022/11/27 03:22:48;;;;;;;17.03;9.90;;;;;;;6.18;81.47;101635.56;5003069;28;20617;-63
2022/11/27 03:25:15;;;;;;;23.30;9.90;;;;;;;6.17;81.33;101628.50;4994244;28;20204;-63
2022/11/27 03:27:47;;;;;;;19.23;10.13;;;;;;;6.11;81.76;101633.44;5001532;28;20646;-63
2022/11/27 03:30:14;;;;;;;18.33;9.60;;;;;;;6.04;82.37;101629.59;4992441;28;20571;-63
2022/11/27 03:32:40;;;;;;;19.07;10.13;;;;;;;6.04;82.19;101639.22;5004289;28;20260;-64
2022/11/27 03:35:10;;;;;;;19.83;8.77;;;;;;;5.95;82.23;101632.63;4996059;28;20262;-64
2022/11/27 03:37:37;;;;;;;19.90;9.00;;;;;;;5.94;82.27;101635.19;4995906;28;20223;-64
2022/11/27 03:40:05;;;;;;;17.63;9.10;;;;;;;5.99;82.49;101636.31;5005267;28;20238;-64
2022/11/27 03:42:57;;;;;;;18.77;8.47;;;;;;;5.94;82.70;101629.94;5004880;28;20235;-64
2022/11/27 03:45:44;;;;;;;17.63;8.50;;;;;;;5.90;83.00;101626.25;5001136;28;20745;-63
2022/11/27 03:48:42;;;;;;;16.03;8.33;;;;;;;5.81;82.93;101625.72;5002108;28;20212;-63
2022/11/27 03:51:36;;;;;;;19.43;8.20;;;;;;;5.77;83.37;101629.03;5003262;28;20252;-64
2022/11/27 03:54:22;;;;;;;15.20;8.20;;;;;;;5.69;83.64;101617.22;5008302;28;20294;-64
2022/11/27 03:57:00;;;;;;;16.27;8.53;;;;;;;5.68;84.02;101612.78;5007344;28;20261;-64
2022/11/27 03:59:36;;;;;;;16.37;8.27;;;;;;;5.62;83.79;101617.72;4985432;28;20310;-64
2022/11/27 04:02:02;;;;;;;17.33;7.87;;;;;;;5.55;84.16;101616.47;5005670;28;20272;-64
2022/11/27 04:04:29;;;;;;;17.77;8.87;;;;;;;5.58;84.01;101615.72;5004673;28;20242;-64
2022/11/27 04:06:55;;;;;;;14.47;7.97;;;;;;;5.48;84.31;101608.19;5003993;28;20209;-63
2022/11/27 04:09:21;;;;;;;20.97;8.70;;;;;;;5.45;84.73;101603.66;5008134;28;20218;-63
2022/11/27 04:11:48;;;;;;;13.40;7.17;;;;;;;5.43;84.78;101612.28;5004437;28;20199;-63
2022/11/27 04:14:14;;;;;;;18.83;7.83;;;;;;;5.44;85.01;101607.13;5000024;28;20280;-64
2022/11/27 04:16:40;;;;;;;16.07;8.20;;;;;;;5.45;84.95;101602.75;5002963;28;20281;-64
2022/11/27 04:19:08;;;;;;;16.23;8.20;;;;;;;5.42;85.15;101586.84;5003662;28;20770;-64
2022/11/27 04:21:34;;;;;;;16.27;8.40;;;;;;;5.54;84.53;101588.38;5001375;28;20207;-64
2022/11/27 04:24:01;;;;;;;19.10;8.97;;;;;;;5.52;84.66;101592.66;4999494;28;20242;-64
2022/11/27 04:26:27;;;;;;;16.10;7.90;;;;;;;5.46;84.37;101586.19;5003675;28;20625;-64
2022/11/27 04:28:53;;;;;;;27.27;8.73;;;;;;;5.44;84.79;101582.56;5000405;28;20735;-64
2022/11/27 04:31:20;;;;;;;14.83;7.93;;;;;;;5.35;84.77;101585.63;5000208;28;20291;-64
2022/11/27 04:33:46;;;;;;;20.07;8.67;;;;;;;5.22;84.83;101578.81;5009396;28;20194;-63
2022/11/27 04:36:12;;;;;;;17.73;8.70;;;;;;;5.03;85.50;101576.91;5006357;28;20290;-64
2022/11/27 04:38:39;;;;;;;22.47;9.17;;;;;;;4.95;86.02;101588.72;5003874;28;20220;-64
2022/11/27 04:41:05;;;;;;;16.87;9.53;;;;;;;4.90;86.75;101584.94;5000949;28;20725;-64
2022/11/27 04:43:31;;;;;;;22.00;9.57;;;;;;;4.88;86.86;101597.06;5003074;28;20671;-64
2022/11/27 04:45:58;;;;;;;19.33;9.60;;;;;;;4.79;86.87;101587.75;5004510;28;20602;-64
2022/11/27 04:48:24;;;;;;;25.63;8.97;;;;;;;4.73;87.20;101596.19;5009028;28;20227;-64
2022/11/27 04:50:54;;;;;;;21.83;9.77;;;;;;;4.54;87.50;101593.38;5008144;28;20218;-64
2022/11/27 04:53:20;;;;;;;18.00;9.53;;;;;;;4.42;87.94;101598.81;5005761;28;20288;-64
2022/11/27 04:55:47;;;;;;;19.60;9.47;;;;;;;4.36;88.28;101601.97;5005698;28;20295;-64
2022/11/27 04:58:13;;;;;;;19.00;8.90;;;;;;;4.19;88.63;101607.06;5001631;28;20311;-64
2022/11/27 05:00:39;;;;;;;27.27;9.73;;;;;;;4.15;89.00;101599.84;5000876;28;20221;-63
2022/11/27 05:03:06;;;;;;;18.47;8.90;;;;;;;4.07;89.01;101596.78;5002453;28;20201;-64
2022/11/27 05:05:33;;;;;;;19.00;9.53;;;;;;;3.91;89.57;101600.19;5002365;28;20211;-64
2022/11/27 05:07:59;;;;;;;15.53;8.20;;;;;;;3.91;90.05;101602.81;5005370;28;20284;-63
2022/11/27 05:10:26;;;;;;;21.77;9.33;;;;;;;3.84;90.22;101595.41;5003945;28;20222;-64
2022/11/27 05:12:52;;;;;;;21.20;9.30;;;;;;;3.76;90.28;101589.72;5001251;28;20279;-62
2022/11/27 05:15:18;;;;;;;23.73;10.03;;;;;;;3.86;90.54;101592.88;5002038;28;20258;-64
2022/11/27 05:17:45;;;;;;;19.73;9.57;;;;;;;3.88;90.63;101591.25;5003245;28;20652;-63
2022/11/27 05:20:11;;;;;;;20.37;10.00;;;;;;;4.05;90.01;101585.31;5002926;28;20765;-63
2022/11/27 05:22:37;;;;;;;20.37;10.03;;;;;;;3.99;89.68;101579.66;4995841;28;20468;-63
2022/11/27 05:25:04;;;;;;;21.60;10.27;;;;;;;3.97;89.75;101578.69;4994682;28;20200;-63
2022/11/27 05:27:30;;;;;;;21.27;10.23;;;;;;;3.77;89.85;101577.50;4995169;28;20247;-64
2022/11/27 05:29:57;;;;;;;24.37;10.90;;;;;;;3.63;90.04;101581.94;5006691;28;20797;-63
2022/11/27 05:32:23;;;;;;;23.03;10.13;;;;;;;3.57;90.52;101567.53;5006580;28;20234;-63
2022/11/27 05:34:50;;;;;;;21.73;9.87;;;;;;;3.50;90.95;101578.47;5001858;28;20462;-64
2022/11/27 05:37:16;;;;;;;18.80;10.30;;;;;;;3.49;91.30;101577.56;4996411;28;20743;-64
2022/11/27 05:39:45;;;;;;;21.20;10.83;;;;;;;3.40;91.39;101551.72;4997849;28;20228;-63
2022/11/27 05:42:11;;;;;;;20.87;10.83;;;;;;;3.40;91.64;101556.97;5000565;28;20231;-64
2022/11/27 05:44:38;;;;;;;22.70;11.23;;;;;;;3.36;91.77;101567.16;4998742;28;20356;-64
2022/11/27 05:47:04;;;;;;;24.33;10.97;;;;;;;3.28;92.18;101555.34;5001951;28;20196;-63
2022/11/27 05:49:31;;;;;;;24.87;11.80;;;;;;;3.10;92.33;101542.91;5006824;28;20220;-64
2022/11/27 05:51:57;;;;;;;25.13;10.23;;;;;;;3.31;92.67;101552.91;5007218;28;20627;-63
2022/11/27 05:54:24;;;;;;;22.43;10.87;;;;;;;3.29;92.36;101538.81;5005292;28;20286;-64
2022/11/27 05:56:50;;;;;;;26.37;11.30;;;;;;;3.22;92.91;101534.91;5003944;28;20280;-64
2022/11/27 05:59:16;;;;;;;23.57;11.53;;;;;;;3.25;92.79;101558.66;5004609;28;20223;-64
2022/11/27 06:01:43;;;;;;;24.20;11.50;;;;;;;3.04;92.62;101532.06;5003251;28;20605;-63
2022/11/27 06:04:09;;;;;;;26.90;11.20;;;;;;;3.21;92.67;101564.53;5002402;28;20196;-64
2022/11/27 06:06:36;;;;;;;23.10;11.67;;;;;;;3.18;93.02;101568.63;5007610;28;20205;-63
2022/11/27 06:09:02;;;;;;;23.07;11.80;;;;;;;3.24;93.49;101563.81;5007965;28;20239;-64
2022/11/27 06:11:36;;;;;;;27.37;11.13;;;;;;;3.35;93.24;101567.97;5006126;28;20207;-63
2022/11/27 06:14:02;;;;;;;24.20;11.30;;;;;;;3.38;93.04;101563.81;5002369;28;20223;-64
2022/11/27 06:16:29;;;;;;;22.00;11.33;;;;;;;3.28;93.39;101550.09;5000815;28;20251;-64
2022/11/27 06:18:55;;;;;;;26.97;11.13;;;;;;;3.33;93.11;101553.88;4998727;28;20222;-64
2022/11/27 06:21:23;;;;;;;28.50;11.70;;;;;;;3.32;93.26;101541.63;5002845;28;20754;-63
2022/11/27 06:23:55;;;;;;;28.20;11.40;;;;;;;3.28;93.38;101545.75;5006882;28;20688;-64
2022/11/27 06:26:25;;;;;;;29.40;11.20;;;;;;;3.32;93.35;101539.91;5005774;28;20204;-64
2022/11/27 06:28:53;;;;;;;24.87;11.30;;;;;;;3.39;93.31;101543.78;5001458;28;20279;-64
2022/11/27 06:31:22;;;;;;;22.90;11.13;;;;;;;3.39;93.02;101544.69;5004774;28;20252;-64
2022/11/27 06:33:50;;;;;;;23.40;11.03;;;;;;;3.41;93.05;101547.41;5007262;28;20215;-64
2022/11/27 06:36:17;;;;;;;28.07;11.90;;;;;;;3.43;92.82;101532.69;5006627;28;20664;-64
2022/11/27 06:38:44;;;;;;;29.47;12.77;;;;;;;3.47;92.54;101529.44;5006329;28;20216;-64
2022/11/27 06:41:17;;;;;;;23.57;11.77;;;;;;;3.50;92.30;101526.09;5003701;28;20315;-64
2022/11/27 06:43:44;;;;;;;28.73;10.90;;;;;;;3.45;92.25;101529.34;5008136;28;20628;-64
2022/11/27 06:46:14;;;;;;;23.70;10.53;;;;;;;3.52;91.90;101533.22;5003312;28;20201;-64
2022/11/27 06:48:42;;;;;;;19.80;9.90;;;;;;;3.52;91.80;101532.31;5008257;28;20202;-64
2022/11/27 06:51:11;;;;;;;23.97;10.93;;;;;;;3.53;91.45;101519.31;5008652;28;20216;-64
2022/11/27 06:53:37;;;;;;;24.60;11.63;;;;;;;3.53;91.43;101529.78;5006374;28;20620;-64
2022/11/27 06:56:07;;;;;;;27.77;12.47;;;;;;;3.60;91.24;101532.00;5006266;28;20208;-64
2022/11/27 06:58:34;;;;;;;20.30;11.97;;;;;;;3.58;91.27;101536.22;5004976;28;20203;-64
2022/11/27 07:01:04;;;;;;;22.60;11.40;;;;;;;3.65;91.11;101546.25;5000619;28;20236;-63
2022/11/27 07:03:30;;;;;;;22.27;10.63;;;;;;;3.67;90.76;101534.16;5002637;28;20220;-64
2022/11/27 07:06:02;;;;;;;21.90;11.07;;;;;;;3.73;90.50;101525.75;5006755;28;20204;-64
2022/11/27 07:08:28;;;;;;;20.23;10.37;;;;;;;3.74;90.73;101515.38;5007520;28;20234;-64
2022/11/27 07:11:06;;;;;;;20.60;11.00;;;;;;;3.81;90.19;101516.63;5005349;28;20250;-64
2022/11/27 07:13:33;;;;;;;21.80;10.87;;;;;;;3.89;89.47;101509.19;4997213;28;20254;-65
2022/11/27 07:16:00;;;;;;;28.73;13.87;;;;;;;3.93;89.09;101514.72;5004224;28;20208;-64
2022/11/27 07:18:28;;;;;;;28.73;11.97;;;;;;;3.91;88.79;101511.09;5006559;28;20243;-64
2022/11/27 07:20:54;;;;;;;23.13;10.70;;;;;;;3.93;88.45;101516.41;5000374;28;20541;-63
2022/11/27 07:23:22;;;;;;;20.23;10.90;;;;;;;3.93;88.58;101513.81;5002910;28;20628;-64
2022/11/27 07:25:48;;;;;;;22.87;11.13;;;;;;;3.94;88.51;101521.75;5004941;28;20293;-64
2022/11/27 07:28:14;;;;;;;24.47;12.00;;;;;;;3.96;88.83;101524.47;5003946;28;20287;-64
2022/11/27 07:30:44;;;;;;;25.57;12.20;;;;;;;3.99;88.75;101522.00;5009268;28;20711;-63
2022/11/27 07:33:11;;;;;;;24.17;11.70;;;;;;;3.99;88.90;101525.53;5008984;28;20642;-64
2022/11/27 07:35:37;;;;;;;24.47;11.40;;;;;;;4.13;88.92;101517.59;5006353;28;20247;-63
2022/11/27 07:38:03;;;;;;;25.03;11.00;;;;;;;4.20;87.53;101514.50;5007946;28;20204;-62
2022/11/27 07:40:29;;;;;;;24.97;10.90;;;;;;;4.27;86.09;101493.03;5003284;28;20306;-64
2022/11/27 07:42:57;;;;;;;19.90;10.30;;;;;;;4.26;85.98;101481.66;5011278;28;20238;-63
2022/11/27 07:45:23;;;;;;;21.73;9.93;;;;;;;4.26;86.00;101471.16;5003489;28;20885;-64
2022/11/27 07:47:50;;;;;;;22.63;10.83;;;;;;;4.29;86.41;101467.81;5010196;28;20207;-63
2022/11/27 07:50:16;;;;;;;21.43;11.03;;;;;;;4.25;86.20;101477.22;5009958;28;20595;-62
2022/11/27 07:52:49;;;;;;;20.83;10.40;;;;;;;4.23;86.16;101478.84;5012651;28;20243;-66
2022/11/27 07:55:21;;;;;;;23.47;10.83;;;;;;;4.24;86.59;101485.00;5007702;28;20200;-65
2022/11/27 07:57:56;;;;;;;24.87;10.97;;;;;;;4.30;86.43;101487.97;4993589;28;20224;-63
2022/11/27 08:00:23;;;;;;;26.13;11.07;;;;;;;4.32;86.58;101492.47;4990559;28;20279;-64
2022/11/27 08:02:53;;;;;;;24.10;10.27;;;;;;;4.26;86.29;101471.16;4992367;28;20634;-65
2022/11/27 08:05:20;;;;;;;24.83;10.40;;;;;;;4.34;86.48;101485.59;5010107;28;20762;-64
2022/11/27 08:07:58;;;;;;;26.90;10.60;;;;;;;4.45;86.41;101493.19;4977494;28;20204;-64
2022/11/27 08:10:25;;;;;;;24.47;11.13;;;;;;;4.49;86.36;101501.31;4991168;28;20816;-63
2022/11/27 08:13:01;;;;;;;23.63;11.40;;;;;;;4.54;86.18;101494.59;4966933;28;20203;-66
2022/11/27 08:15:36;;;;;;;24.77;11.20;;;;;;;4.52;85.93;101488.34;4991466;28;20196;-65
2022/11/27 08:18:03;;;;;;;22.67;11.50;;;;;;;4.65;85.69;101503.94;5002620;28;20340;-64
2022/11/27 08:20:29;;;;;;;28.03;11.30;;;;;;;4.69;85.90;101497.13;5004223;28;20675;-65
2022/11/27 08:22:56;;;;;;;22.50;11.10;;;;;;;4.80;85.18;101484.59;4989103;28;20296;-64
2022/11/27 08:25:28;;;;;;;26.40;12.30;;;;;;;4.83;84.81;101474.28;4986605;28;21407;-65
2022/11/27 08:27:55;;;;;;;23.27;12.00;;;;;;;4.82;84.22;101473.38;4989757;28;20208;-64
2022/11/27 08:30:22;;;;;;;29.37;12.40;;;;;;;4.85;84.27;101497.16;4991653;28;20289;-64
2022/11/27 08:32:49;;;;;;;22.80;11.70;;;;;;;4.83;84.11;101483.06;4990889;28;20196;-64
2022/11/27 08:35:15;;;;;;;21.60;10.50;;;;;;;4.83;84.56;101485.69;5009467;28;20198;-64
2022/11/27 08:37:42;;;;;;;20.80;10.87;;;;;;;4.82;84.52;101478.63;5008649;28;20210;-64
2022/11/27 08:40:09;;;;;;;26.67;11.80;;;;;;;4.86;84.56;101471.84;4995367;28;20231;-63
2022/11/27 08:42:35;;;;;;;25.80;12.40;;;;;;;4.89;83.94;101483.41;5008170;28;20736;-64
2022/11/27 08:45:02;;;;;;;27.30;12.50;;;;;;;4.88;84.35;101481.59;5006733;28;20216;-63
2022/11/27 08:47:29;;;;;;;27.07;12.07;;;;;;;4.87;84.21;101471.91;5020933;28;20198;-65
2022/11/27 08:49:58;;;;;;;25.43;11.70;;;;;;;4.83;84.00;101450.66;5006934;28;20290;-66
2022/11/27 08:52:26;;;;;;;31.23;13.43;;;;;;;4.88;83.67;101457.97;5007840;28;20549;-65
2022/11/27 08:54:52;;;;;;;31.03;13.67;;;;;;;4.93;84.01;101458.22;5005532;28;20613;-65
2022/11/27 08:57:23;;;;;;;28.47;12.03;;;;;;;5.01;83.81;101460.41;5009266;28;20235;-64
2022/11/27 08:59:49;;;;;;;27.53;12.30;;;;;;;5.06;83.13;101465.00;5009779;28;20256;-64
2022/11/27 09:02:16;;;;;;;35.03;14.93;;;;;;;5.14;83.47;101474.16;5006733;28;20284;-64
2022/11/27 09:04:42;;;;;;;34.50;13.50;;;;;;;5.16;82.84;101460.28;5007748;28;20207;-64
2022/11/27 09:07:12;;;;;;;29.47;13.50;;;;;;;5.20;83.33;101459.66;5010351;28;20275;-63
2022/11/27 09:09:39;;;;;;;28.47;12.53;;;;;;;5.25;83.24;101460.81;5008267;28;20219;-64
2022/11/27 09:12:06;;;;;;;28.73;14.33;;;;;;;5.28;82.71;101457.44;5010553;28;20699;-64
2022/11/27 09:14:32;;;;;;;27.00;13.63;;;;;;;5.19;82.68;101444.69;5007163;28;20278;-64
2022/11/27 09:16:58;;;;;;;28.87;13.27;;;;;;;5.24;82.78;101456.38;5004089;28;20270;-64
2022/11/27 09:19:25;;;;;;;29.80;14.33;;;;;;;5.26;83.37;101453.81;5007540;28;20235;-64
2022/11/27 09:21:51;;;;;;;26.60;11.23;;;;;;;5.27;82.60;101460.88;5006802;28;20197;-65
2022/11/27 09:24:17;;;;;;;25.17;12.10;;;;;;;5.19;82.70;101457.81;5002562;28;20656;-64
2022/11/27 09:26:44;;;;;;;27.83;12.83;;;;;;;5.16;82.69;101452.41;5001373;28;20199;-64
2022/11/27 09:29:10;;;;;;;25.27;12.60;;;;;;;5.18;83.41;101452.50;5007924;28;20235;-65
2022/11/27 09:31:36;;;;;;;28.10;12.87;;;;;;;5.15;83.16;101442.75;5007053;28;20303;-63
2022/11/27 09:34:04;;;;;;;29.57;12.37;;;;;;;5.47;81.63;101446.13;5005815;28;20212;-64
2022/11/27 09:36:30;;;;;;;29.90;12.57;;;;;;;5.15;82.05;101448.00;4999532;28;20294;-64
2022/11/27 09:38:58;;;;;;;27.53;11.60;;;;;;;5.19;82.19;101449.03;5008265;28;20267;-64
2022/11/27 09:41:38;;;;;;;22.83;10.50;;;;;;;5.02;82.68;101440.31;5007229;28;20312;-64
2022/11/27 09:44:25;;;;;;;22.53;10.20;;;;;;;5.00;82.55;101440.22;5008794;28;20267;-64
2022/11/27 09:46:53;;;;;;;21.30;10.80;;;;;;;4.97;83.28;101437.44;5008461;28;20231;-65
2022/11/27 09:49:28;;;;;;;25.07;11.20;;;;;;;5.03;82.97;101426.34;5004689;28;20274;-64
2022/11/27 09:52:09;;;;;;;21.17;10.73;;;;;;;5.00;83.15;101421.84;5003827;28;20298;-64
2022/11/27 09:54:43;;;;;;;21.60;11.23;;;;;;;5.02;82.83;101427.19;5005199;28;20210;-63
2022/11/27 09:57:24;;;;;;;24.63;11.27;;;;;;;4.98;83.25;101419.97;5005297;28;20196;-64
2022/11/27 09:59:53;;;;;;;23.33;10.97;;;;;;;5.03;82.98;101416.75;5002400;28;20295;-64
2022/11/27 10:02:27;;;;;;;24.97;11.43;;;;;;;5.02;83.46;101404.47;5002664;28;20742;-64
2022/11/27 10:04:55;;;;;;;22.03;11.37;;;;;;;5.08;82.79;101405.59;5003148;28;20292;-64
2022/11/27 10:08:12;;;;;;;22.27;10.97;;;;;;;5.21;82.06;101405.41;5005038;28;20192;-64
2022/11/27 10:10:45;;;;;;;23.57;11.10;;;;;;;5.31;81.76;101413.84;5005159;28;20212;-65
2022/11/27 10:13:39;;;;;;;21.37;11.10;;;;;;;5.31;81.20;101408.59;5007501;28;20258;-63
2022/11/27 10:16:23;;;;;;;25.67;12.27;;;;;;;5.25;81.48;101404.75;4999807;28;20755;-64
2022/11/27 10:18:56;;;;;;;29.53;11.80;;;;;;;5.27;81.33;101392.59;5003482;28;20296;-64
2022/11/27 10:21:50;;;;;;;25.90;12.70;;;;;;;5.41;81.33;101393.28;5001100;28;20362;-64
2022/11/27 10:24:38;;;;;;;21.90;11.50;;;;;;;5.52;80.65;101392.09;5002985;28;20381;-64
2022/11/27 10:27:43;;;;;;;22.23;11.47;;;;;;;5.65;80.49;101390.16;5002192;28;20273;-64
2022/11/27 10:30:19;;;;;;;28.07;11.90;;;;;;;5.78;78.86;101372.34;4987784;28;20582;-65
2022/11/27 10:32:50;;;;;;;22.87;11.97;;;;;;;5.69;79.24;101364.03;4988806;28;20623;-64
2022/11/27 10:35:27;;;;;;;29.90;12.93;;;;;;;5.47;79.81;101341.94;5000753;28;20218;-64
2022/11/27 10:38:11;;;;;;;29.67;13.43;;;;;;;5.37;80.62;101328.28;4998314;28;20677;-64
2022/11/27 10:40:44;;;;;;;27.63;13.40;;;;;;;5.23;80.76;101317.13;4995846;28;20581;-64
2022/11/27 10:43:22;;;;;;;27.97;12.33;;;;;;;5.29;81.00;101326.19;4995742;28;20291;-63
2022/11/27 10:46:07;;;;;;;24.93;12.07;;;;;;;5.20;82.11;101327.44;5000195;28;20634;-64
2022/11/27 10:48:33;;;;;;;26.13;12.53;;;;;;;5.25;82.00;101320.72;5000388;28;20192;-64
2022/11/27 10:51:00;;;;;;;23.33;11.70;;;;;;;5.35;81.19;101323.88;5000739;28;20306;-64
2022/11/27 10:53:32;;;;;;;22.07;11.73;;;;;;;5.49;80.42;101323.63;5003317;28;20522;-64
2022/11/27 10:56:04;;;;;;;23.87;12.17;;;;;;;5.63;80.62;101322.59;5000745;28;20573;-64
2022/11/27 10:58:34;;;;;;;23.53;12.30;;;;;;;5.77;80.23;101332.03;5004480;28;20253;-63
2022/11/27 11:01:06;;;;;;;26.17;13.20;;;;;;;5.93;78.78;101328.41;5002251;28;20289;-62
2022/11/27 11:03:33;;;;;;;29.03;13.27;;;;;;;5.93;78.44;101302.13;4996927;28;20210;-64
2022/11/27 11:06:04;;;;;;;27.60;13.53;;;;;;;5.95;78.37;101295.22;4998333;28;20250;-63
2022/11/27 11:08:46;;;;;;;28.87;13.20;;;;;;;6.08;78.56;101301.94;4996788;28;20668;-62
2022/11/27 11:11:12;;;;;;;26.93;13.30;;;;;;;6.38;77.45;101299.78;5003334;28;20246;-63
2022/11/27 11:13:39;;;;;;;25.27;12.93;;;;;;;6.58;76.64;101294.59;4987445;28;20672;-63
2022/11/27 11:16:14;;;;;;;25.43;12.77;;;;;;;6.83;76.57;101280.78;4998943;28;20666;-64
2022/11/27 11:18:54;;;;;;;22.17;11.87;;;;;;;7.04;75.56;101274.59;5005414;28;20600;-64
2022/11/27 11:21:47;;;;;;;25.50;12.77;;;;;;;7.26;73.21;101263.22;5006678;28;20233;-63
2022/11/27 11:24:24;;;;;;;22.70;12.07;;;;;;;7.38;73.46;101253.16;5000424;28;20261;-64
2022/11/27 11:26:58;;;;;;;21.80;12.20;;;;;;;7.36;72.25;101252.22;4998500;28;20287;-63
2022/11/27 11:29:27;;;;;;;21.73;12.17;;;;;;;7.18;72.94;101253.25;5000911;28;20216;-64
2022/11/27 11:31:55;;;;;;;25.57;12.33;;;;;;;7.38;72.48;101266.34;4999499;28;20199;-64
2022/11/27 11:34:27;;;;;;;25.43;13.70;;;;;;;7.47;72.98;101264.97;5006222;28;20294;-63